Time;durP1;ratioP1;P1;durP2;ratioP2;P2;SDS_P1;SDS_P2;PMS_P1;PMS_P2;Temp;Humidity;BMP_temperature;BMP_pressure;BME280_temperature;BME280_humidity;BME280_pressure;Samples;Min_cycle;Max_cycle;Signal;HPM_P1;HPM_P2
2023/04/15 00:02:18;;;;;;;24.60;14.60;;;;;;;10.83;79.75;99878.40;123825;1099;104373;-79
2023/04/15 00:04:49;;;;;;;26.67;15.97;;;;;;;10.84;80.46;99882.81;123766;1099;104313;-78
2023/04/15 00:07:21;;;;;;;24.85;15.60;;;;;;;10.82;80.21;99872.28;123703;1099;104264;-78
2023/04/15 00:09:55;;;;;;;24.70;15.23;;;;;;;10.80;80.76;99871.36;123678;1099;104268;-78
2023/04/15 00:12:27;;;;;;;26.47;15.60;;;;;;;10.79;79.73;99880.95;123628;1099;104265;-78
2023/04/15 00:14:58;;;;;;;28.97;16.53;;;;;;;10.79;80.30;99886.20;123713;1099;104355;-77
2023/04/15 00:17:30;;;;;;;28.50;14.73;;;;;;;10.78;79.82;99880.91;123493;1098;104370;-77
2023/04/15 00:20:02;;;;;;;24.20;13.20;;;;;;;10.76;80.89;99886.13;123546;1099;104246;-77
2023/04/15 00:22:33;;;;;;;25.10;13.50;;;;;;;10.77;80.46;99887.03;123559;1099;104239;-77
2023/04/15 00:25:05;;;;;;;22.10;11.83;;;;;;;10.77;81.57;99887.03;123456;1102;104331;-79
2023/04/15 00:27:36;;;;;;;23.90;12.70;;;;;;;10.75;81.33;99879.13;123827;1099;104242;-77
2023/04/15 00:30:10;;;;;;;20.83;11.27;;;;;;;10.74;81.79;99871.20;123675;1102;104280;-77
2023/04/15 00:32:42;;;;;;;21.37;11.40;;;;;;;10.74;81.85;99868.58;123674;1099;104459;-78
2023/04/15 00:35:13;;;;;;;20.77;11.00;;;;;;;10.71;83.16;99864.14;123683;1100;104341;-78
2023/04/15 00:37:44;;;;;;;24.90;10.77;;;;;;;10.71;82.40;99851.02;123792;1099;104227;-76
2023/04/15 00:40:19;;;;;;;22.73;10.70;;;;;;;10.69;81.85;99862.31;123768;1099;104402;-80
2023/04/15 00:42:51;;;;;;;20.53;9.70;;;;;;;10.68;83.21;99855.31;123713;1099;104326;-78
2023/04/15 00:45:22;;;;;;;19.20;10.13;;;;;;;10.66;82.99;99857.89;123456;1099;104287;-77
2023/04/15 00:47:54;;;;;;;19.73;10.50;;;;;;;10.65;85.29;99848.23;123411;1099;104249;-77
2023/04/15 00:50:26;;;;;;;18.93;9.67;;;;;;;10.62;83.69;99848.16;123398;1100;104322;-77
2023/04/15 00:52:57;;;;;;;21.47;10.40;;;;;;;10.59;84.69;99851.58;123234;1099;104400;-77
2023/04/15 00:55:28;;;;;;;21.05;10.05;;;;;;;10.58;83.64;99855.08;123305;1099;104267;-76
2023/04/15 00:57:59;;;;;;;19.17;9.53;;;;;;;10.58;84.00;99862.04;123419;1099;104319;-76
2023/04/15 01:00:31;;;;;;;19.27;9.53;;;;;;;10.55;84.78;99857.63;123342;1099;104214;-76
2023/04/15 01:03:03;;;;;;;19.20;9.87;;;;;;;10.53;84.38;99854.09;123565;1099;104328;-78
2023/04/15 01:05:35;;;;;;;20.55;9.70;;;;;;;10.52;85.32;99854.05;123377;1099;104338;-77
2023/04/15 01:08:07;;;;;;;21.73;9.80;;;;;;;10.51;84.30;99852.26;123499;1099;104399;-78
2023/04/15 01:10:39;;;;;;;19.17;9.53;;;;;;;10.48;84.79;99837.31;123481;1102;104261;-80
2023/04/15 01:13:10;;;;;;;18.57;9.17;;;;;;;10.47;84.51;99856.55;123784;1102;104245;-79
2023/04/15 01:15:42;;;;;;;18.23;9.17;;;;;;;10.46;85.75;99853.89;123777;1099;104268;-78
2023/04/15 01:18:14;;;;;;;22.03;9.83;;;;;;;10.43;84.20;99860.80;123461;1098;104315;-78
2023/04/15 01:20:45;;;;;;;19.93;9.50;;;;;;;10.43;84.75;99865.17;123481;1099;104265;-78
2023/04/15 01:23:17;;;;;;;18.10;8.70;;;;;;;10.41;86.01;99878.25;123607;1099;104278;-78
2023/04/15 01:25:49;;;;;;;17.87;9.37;;;;;;;10.41;85.88;99888.74;123690;1099;104287;-79
2023/04/15 01:28:20;;;;;;;19.50;9.03;;;;;;;10.42;85.75;99890.53;123655;1099;104305;-78
2023/04/15 01:31:06;;;;;;;19.37;9.90;;;;;;;10.44;86.50;99890.56;123678;1099;104753;-79
2023/04/15 01:33:42;;;;;;;21.03;10.00;;;;;;;10.46;86.47;99893.23;123793;1098;104325;-80
2023/04/15 01:36:13;;;;;;;19.53;10.63;;;;;;;10.47;85.14;99887.12;123767;1100;104338;-80
2023/04/15 01:38:45;;;;;;;24.27;10.80;;;;;;;10.47;84.83;99885.41;123758;1099;104335;-79
2023/04/15 01:41:18;;;;;;;20.50;10.30;;;;;;;10.49;84.61;99885.44;123725;1102;104275;-80
2023/04/15 01:43:51;;;;;;;23.73;11.50;;;;;;;10.51;84.82;99897.73;123780;1099;104281;-79
2023/04/15 01:46:23;;;;;;;21.13;10.60;;;;;;;10.49;85.14;99888.06;123725;1099;104208;-80
2023/04/15 01:48:54;;;;;;;21.40;11.73;;;;;;;10.49;85.26;99891.56;123602;1099;104245;-78
2023/04/15 01:51:26;;;;;;;19.87;10.90;;;;;;;10.48;85.14;99887.16;123536;1102;104271;-77
2023/04/15 01:53:57;;;;;;;20.80;11.60;;;;;;;10.50;84.77;99889.82;123481;1100;104666;-79
2023/04/15 01:56:29;;;;;;;18.73;10.37;;;;;;;10.50;85.58;99900.31;123334;1102;104370;-76
2023/04/15 01:59:00;;;;;;;18.57;9.17;;;;;;;10.51;85.27;99886.36;123507;1099;104262;-77
2023/04/15 02:01:31;;;;;;;20.10;10.27;;;;;;;10.49;85.55;99899.44;123399;1099;104348;-77
2023/04/15 02:04:03;;;;;;;19.40;9.77;;;;;;;10.47;86.07;99890.65;123419;1099;104303;-78
2023/04/15 02:06:35;;;;;;;18.87;9.67;;;;;;;10.47;85.73;99897.61;123266;1102;104312;-78
2023/04/15 02:09:07;;;;;;;17.77;9.37;;;;;;;10.49;85.99;99909.05;123387;1099;104342;-77
2023/04/15 02:11:38;;;;;;;18.60;9.37;;;;;;;10.48;85.90;99908.14;123611;1099;104242;-78
2023/04/15 02:14:10;;;;;;;16.43;9.30;;;;;;;10.50;85.49;99910.80;123389;1102;104264;-78
2023/04/15 02:16:41;;;;;;;20.33;9.47;;;;;;;10.50;85.87;99914.34;123369;1099;104265;-77
2023/04/15 02:19:12;;;;;;;16.77;8.87;;;;;;;10.51;86.68;99915.22;123269;1102;104356;-77
2023/04/15 02:21:44;;;;;;;20.00;8.90;;;;;;;10.51;85.53;99916.09;123356;1099;104268;-78
2023/04/15 02:24:15;;;;;;;20.57;9.57;;;;;;;10.51;85.88;99904.72;123373;1099;104307;-78
2023/04/15 02:26:46;;;;;;;17.70;9.05;;;;;;;10.51;85.33;99905.60;123144;1102;104301;-78
2023/04/15 02:29:17;;;;;;;20.13;9.50;;;;;;;10.49;86.19;99917.80;123421;1099;104460;-78
2023/04/15 02:31:49;;;;;;;19.00;9.70;;;;;;;10.50;85.88;99921.30;123755;1099;104727;-77
2023/04/15 02:34:20;;;;;;;17.27;9.80;;;;;;;10.49;86.45;99917.80;123214;1100;104357;-78
2023/04/15 02:36:54;;;;;;;17.75;9.75;;;;;;;10.50;85.87;99913.42;123532;1099;104360;-77
2023/04/15 02:39:26;;;;;;;18.07;9.00;;;;;;;10.50;85.88;99913.42;123334;1099;104332;-78
2023/04/15 02:41:58;;;;;;;18.27;9.30;;;;;;;10.50;86.06;99918.67;123744;1099;104264;-77
2023/04/15 02:44:30;;;;;;;17.83;10.07;;;;;;;10.49;86.67;99912.55;123343;1099;104287;-78
2023/04/15 02:47:05;;;;;;;18.97;9.83;;;;;;;10.49;86.01;99911.67;123404;1102;104304;-78
2023/04/15 02:49:36;;;;;;;18.40;10.10;;;;;;;10.50;86.38;99918.67;123607;1099;104271;-79
2023/04/15 02:52:08;;;;;;;19.07;10.10;;;;;;;10.50;86.13;99918.67;123641;1099;104300;-78
2023/04/15 02:54:40;;;;;;;21.07;10.47;;;;;;;10.50;87.64;99900.31;123537;1099;104166;-79
2023/04/15 02:57:11;;;;;;;19.13;10.77;;;;;;;10.50;86.99;99879.33;123337;1099;104338;-77
2023/04/15 02:59:43;;;;;;;18.37;9.77;;;;;;;10.51;86.81;99870.63;123539;1099;104402;-77
2023/04/15 03:02:14;;;;;;;19.47;10.67;;;;;;;10.48;86.83;99868.80;123570;1099;104267;-77
2023/04/15 03:04:45;;;;;;;18.27;9.83;;;;;;;10.45;89.26;99879.20;123267;1099;104699;-80
2023/04/15 03:07:17;;;;;;;18.07;9.70;;;;;;;10.44;87.65;99890.56;123299;1099;104315;-77
2023/04/15 03:09:48;;;;;;;21.77;11.07;;;;;;;10.44;87.24;99893.19;123334;1098;104418;-77
2023/04/15 03:12:20;;;;;;;22.20;12.70;;;;;;;10.46;87.34;99901.98;123308;1102;104778;-78
2023/04/15 03:14:51;;;;;;;21.37;12.60;;;;;;;10.47;87.09;99903.77;123157;1100;104261;-78
2023/04/15 03:17:24;;;;;;;;;;;;;;;10.48;88.31;99907.27;123264;1099;104240;-77
2023/04/15 03:19:55;;;;;;;24.23;13.40;;;;;;;10.49;87.37;99906.42;123766;1098;104366;-78
2023/04/15 03:22:27;;;;;;;21.70;13.00;;;;;;;10.50;87.70;99909.09;123441;1099;104348;-77
2023/04/15 03:24:59;;;;;;;25.53;12.87;;;;;;;10.51;88.22;99909.97;123417;1099;104348;-77
2023/04/15 03:27:30;;;;;;;18.80;10.60;;;;;;;10.51;90.53;99894.23;123684;1099;104389;-78
2023/04/15 03:30:05;;;;;;;21.70;11.68;;;;;;;10.53;88.97;99903.92;123358;1102;104256;-79
2023/04/15 03:32:37;;;;;;;27.43;12.50;;;;;;;10.55;89.04;99899.59;123464;1099;104330;-77
2023/04/15 03:35:11;;;;;;;21.97;11.70;;;;;;;10.57;88.31;99904.88;123631;1099;104833;-78
2023/04/15 03:37:42;;;;;;;21.63;12.20;;;;;;;10.60;89.48;99904.97;123579;1099;104383;-79
2023/04/15 03:40:14;;;;;;;21.07;12.30;;;;;;;10.61;88.83;99906.72;123312;1102;104354;-78
2023/04/15 03:42:46;;;;;;;22.23;13.27;;;;;;;10.61;89.90;99909.34;123763;1099;104705;-78
2023/04/15 03:45:17;;;;;;;23.17;12.70;;;;;;;10.62;89.04;99903.26;123698;1099;104692;-78
2023/04/15 03:47:49;;;;;;;22.60;13.70;;;;;;;10.63;89.43;99905.05;123557;1099;104342;-76
2023/04/15 03:50:20;;;;;;;22.53;13.57;;;;;;;10.65;88.50;99905.09;123453;1099;104303;-78
2023/04/15 03:52:51;;;;;;;21.07;12.80;;;;;;;10.65;89.37;99902.46;123324;1099;104269;-78
2023/04/15 03:55:23;;;;;;;22.53;13.10;;;;;;;10.65;89.72;99908.58;123289;1102;104321;-76
2023/04/15 03:57:54;;;;;;;23.30;13.50;;;;;;;10.65;90.30;99915.58;123641;1098;104337;-77
2023/04/15 04:00:25;;;;;;;25.57;14.17;;;;;;;10.64;89.86;99925.16;123332;1099;104324;-78
2023/04/15 04:02:57;;;;;;;25.27;14.10;;;;;;;10.65;89.06;99940.07;123828;1099;104249;-78
2023/04/15 04:05:28;;;;;;;23.87;14.13;;;;;;;10.66;88.78;99926.12;123575;1099;104265;-77
2023/04/15 04:07:59;;;;;;;24.00;15.13;;;;;;;10.68;89.48;99918.28;123568;1099;104191;-77
2023/04/15 04:10:31;;;;;;;26.23;15.60;;;;;;;10.67;89.65;99932.24;123629;1098;104265;-78
2023/04/15 04:13:02;;;;;;;25.17;15.20;;;;;;;10.66;89.62;99936.61;123299;1099;104338;-77
2023/04/15 04:15:33;;;;;;;27.17;16.00;;;;;;;10.64;89.74;99938.28;123253;1099;105476;-78
2023/04/15 04:18:05;;;;;;;25.43;15.03;;;;;;;10.63;90.05;99952.27;123231;1099;104245;-77
2023/04/15 04:20:36;;;;;;;24.80;14.60;;;;;;;10.61;90.13;99936.48;123637;1099;104245;-77
2023/04/15 04:23:07;;;;;;;27.15;16.10;;;;;;;10.61;90.53;99948.70;123317;1099;104347;-78
2023/04/15 04:25:39;;;;;;;26.67;15.97;;;;;;;10.59;90.46;99937.28;123688;1099;104344;-77
2023/04/15 04:28:10;;;;;;;26.07;14.90;;;;;;;10.55;91.65;99943.28;123535;1099;104364;-78
2023/04/15 04:30:41;;;;;;;29.47;16.87;;;;;;;10.54;90.74;99949.40;123564;1099;104384;-78
2023/04/15 04:33:13;;;;;;;24.50;14.93;;;;;;;10.54;90.99;99946.78;123556;1099;104166;-79
2023/04/15 04:35:44;;;;;;;29.90;17.37;;;;;;;10.53;91.44;99955.48;123469;1099;104239;-77
2023/04/15 04:38:15;;;;;;;26.57;16.07;;;;;;;10.53;90.31;99965.98;123675;1099;104294;-78
2023/04/15 04:40:46;;;;;;;28.10;16.67;;;;;;;10.53;90.19;99960.73;123583;1099;104481;-77
2023/04/15 04:43:18;;;;;;;28.70;16.47;;;;;;;10.53;92.02;99947.61;123648;1099;104271;-77
2023/04/15 04:45:49;;;;;;;25.77;15.20;;;;;;;10.53;90.60;99960.73;123807;1099;104242;-79
2023/04/15 04:48:20;;;;;;;30.75;18.05;;;;;;;10.53;91.22;99948.52;123600;1099;104251;-79
2023/04/15 04:50:52;;;;;;;27.40;16.53;;;;;;;10.55;90.45;99948.53;123569;1099;104373;-79
2023/04/15 04:53:23;;;;;;;27.17;16.57;;;;;;;10.56;91.22;99927.59;123732;1099;104315;-79
2023/04/15 04:55:55;;;;;;;30.03;18.80;;;;;;;10.57;91.41;99938.98;123788;1099;105637;-78
2023/04/15 04:58:26;;;;;;;28.73;18.57;;;;;;;10.58;91.14;99938.12;123860;1099;104238;-80
2023/04/15 05:00:58;;;;;;;29.03;18.47;;;;;;;10.57;91.06;99928.50;123817;1099;104241;-79
2023/04/15 05:03:29;;;;;;;29.77;17.43;;;;;;;10.57;91.61;99928.50;123733;1099;104339;-80
2023/04/15 05:06:01;;;;;;;31.63;18.70;;;;;;;10.59;91.07;99942.53;123953;1099;104217;-82
2023/04/15 05:08:33;;;;;;;31.90;20.60;;;;;;;10.61;90.87;99953.94;123762;1099;104271;-81
2023/04/15 05:11:05;;;;;;;33.17;19.50;;;;;;;10.65;90.47;99941.81;123786;1099;104244;-81
2023/04/15 05:13:37;;;;;;;31.40;19.33;;;;;;;10.65;91.27;99954.94;124312;1099;104316;-83
2023/04/15 05:16:09;;;;;;;30.60;19.67;;;;;;;10.64;91.49;99958.40;123878;1099;104223;-80
2023/04/15 05:18:40;;;;;;;32.10;19.53;;;;;;;10.63;90.73;99954.89;123835;1099;104720;-80
2023/04/15 05:21:11;;;;;;;32.15;19.80;;;;;;;10.64;91.21;99961.90;123639;1099;104268;-81
2023/04/15 05:23:43;;;;;;;30.00;18.65;;;;;;;10.66;90.69;99967.19;124079;1099;104219;-79
2023/04/15 05:26:14;;;;;;;27.90;18.37;;;;;;;10.67;91.51;99977.73;124112;1099;104223;-80
2023/04/15 05:28:46;;;;;;;28.30;18.40;;;;;;;10.66;91.06;99983.84;123791;1099;120391;-77
2023/04/15 05:31:18;;;;;;;30.00;18.00;;;;;;;10.65;90.93;99981.17;123784;1099;104319;-78
2023/04/15 05:33:49;;;;;;;30.47;18.03;;;;;;;10.66;91.16;99975.97;123925;1099;104388;-78
2023/04/15 05:36:20;;;;;;;29.27;17.73;;;;;;;10.68;91.22;99987.38;123899;1099;104240;-79
2023/04/15 05:38:51;;;;;;;32.87;19.30;;;;;;;10.68;91.48;99989.12;124021;1099;104367;-79
2023/04/15 05:41:22;;;;;;;29.20;17.90;;;;;;;10.71;90.73;99984.84;124104;1099;104305;-80
2023/04/15 05:43:54;;;;;;;31.20;17.90;;;;;;;10.76;90.64;99991.09;123774;1099;104242;-78
2023/04/15 05:46:25;;;;;;;28.67;16.57;;;;;;;10.78;90.87;99983.27;124006;1099;104341;-79
2023/04/15 05:48:56;;;;;;;34.67;17.33;;;;;;;10.83;90.89;99983.38;124038;1099;104239;-79
2023/04/15 05:51:28;;;;;;;28.73;17.60;;;;;;;10.84;91.11;99986.05;124005;1099;104168;-79
2023/04/15 05:54:00;;;;;;;30.67;17.87;;;;;;;10.87;90.93;99988.75;124065;1098;104256;-77
2023/04/15 05:56:31;;;;;;;29.00;17.63;;;;;;;10.90;90.76;99985.33;123942;1099;104365;-78
2023/04/15 05:59:02;;;;;;;31.67;17.30;;;;;;;10.88;91.52;99995.79;123786;1099;104242;-79
2023/04/15 06:01:34;;;;;;;31.97;19.00;;;;;;;10.87;91.17;100012.38;123982;1098;104246;-78
2023/04/15 06:04:06;;;;;;;28.63;18.07;;;;;;;10.89;91.22;100018.58;123812;1099;104241;-80
2023/04/15 06:06:38;;;;;;;29.30;17.47;;;;;;;10.91;91.21;100021.25;123847;1099;104364;-79
2023/04/15 06:09:10;;;;;;;31.17;17.90;;;;;;;10.91;90.92;100021.25;123905;1098;105643;-78
2023/04/15 06:11:41;;;;;;;28.53;17.00;;;;;;;10.92;91.41;100010.78;123939;1099;104395;-79
2023/04/15 06:14:12;;;;;;;28.37;16.60;;;;;;;10.93;91.51;100011.66;123810;1099;104265;-77
2023/04/15 06:16:43;;;;;;;29.57;17.83;;;;;;;10.93;91.01;100017.79;123870;1099;104258;-79
2023/04/15 06:19:15;;;;;;;28.67;17.93;;;;;;;10.95;91.06;100017.83;124033;1099;104329;-78
2023/04/15 06:21:46;;;;;;;26.77;15.60;;;;;;;10.98;91.37;100020.54;123889;1099;104354;-80
2023/04/15 06:24:17;;;;;;;27.70;16.23;;;;;;;11.02;91.60;100019.78;123883;1099;101880;-77
2023/04/15 06:26:48;;;;;;;29.60;17.45;;;;;;;11.06;91.40;100020.74;123846;1099;104338;-79
2023/04/15 06:29:20;;;;;;;28.70;18.03;;;;;;;11.09;91.47;100021.70;124012;1099;104245;-79
2023/04/15 06:31:51;;;;;;;29.27;18.13;;;;;;;11.13;91.02;100022.69;123851;1099;104283;-78
2023/04/15 06:34:22;;;;;;;29.73;17.40;;;;;;;11.14;91.35;100019.19;123758;1099;104216;-79
2023/04/15 06:36:54;;;;;;;31.93;18.33;;;;;;;11.19;91.38;100024.56;123896;1099;104222;-77
2023/04/15 06:39:26;;;;;;;30.13;18.30;;;;;;;11.25;91.19;100011.59;124282;1099;104185;-80
2023/04/15 06:41:57;;;;;;;31.23;18.57;;;;;;;11.33;91.24;100010.06;124112;1099;104231;-79
2023/04/15 06:44:29;;;;;;;30.70;18.17;;;;;;;11.42;90.97;100010.30;124186;1099;104327;-79
2023/04/15 06:47:00;;;;;;;29.83;18.10;;;;;;;11.51;90.91;100006.98;124021;1099;104284;-79
2023/04/15 06:49:32;;;;;;;29.57;17.93;;;;;;;11.59;90.91;100015.05;124167;1099;104194;-80
2023/04/15 06:52:04;;;;;;;35.40;18.97;;;;;;;11.66;90.65;100015.23;124046;1099;104341;-79
2023/04/15 06:54:35;;;;;;;34.30;18.10;;;;;;;11.72;90.40;100022.38;123961;1099;104176;-80
2023/04/15 06:57:08;;;;;;;29.13;17.70;;;;;;;11.74;90.64;100019.78;124111;1099;104269;-78
2023/04/15 06:59:39;;;;;;;28.60;17.80;;;;;;;11.75;90.38;100025.08;123882;1099;104412;-78
2023/04/15 07:02:13;;;;;;;27.83;15.97;;;;;;;11.80;90.35;100019.93;123702;1099;104264;-77
2023/04/15 07:04:45;;;;;;;31.40;16.50;;;;;;;11.86;90.70;100026.20;123721;1099;104245;-77
2023/04/15 07:07:16;;;;;;;28.60;15.77;;;;;;;11.90;90.37;100026.28;123866;1099;104357;-78
2023/04/15 07:09:48;;;;;;;28.20;16.63;;;;;;;11.94;90.20;100033.42;123620;1099;104370;-79
2023/04/15 07:12:19;;;;;;;30.37;15.70;;;;;;;11.97;90.23;100029.11;123784;1099;104417;-78
2023/04/15 07:14:50;;;;;;;29.15;15.60;;;;;;;12.02;90.00;100023.95;124123;1099;104240;-79
2023/04/15 07:17:21;;;;;;;25.33;15.20;;;;;;;12.07;90.05;100030.20;124077;1099;104235;-76
2023/04/15 07:19:53;;;;;;;30.93;15.87;;;;;;;12.11;89.75;100044.33;123657;1099;104195;-77
2023/04/15 07:22:25;;;;;;;26.10;15.23;;;;;;;12.06;89.73;100049.48;123881;1099;104647;-78
2023/04/15 07:24:56;;;;;;;26.30;15.83;;;;;;;12.01;89.63;100041.48;123408;1099;104387;-77
2023/04/15 07:27:27;;;;;;;29.30;16.70;;;;;;;11.99;89.68;100040.55;123741;1099;104341;-80
2023/04/15 07:29:59;;;;;;;30.40;16.53;;;;;;;12.00;89.79;100054.60;123784;1099;104268;-79
2023/04/15 07:32:30;;;;;;;27.75;17.05;;;;;;;11.98;89.59;100048.40;124011;1099;104236;-79
2023/04/15 07:35:02;;;;;;;28.30;17.07;;;;;;;11.95;89.42;100066.73;123935;1099;104351;-79
2023/04/15 07:37:33;;;;;;;28.03;16.00;;;;;;;11.94;89.67;100072.87;123648;1099;104855;-79
2023/04/15 07:40:07;;;;;;;27.97;16.00;;;;;;;11.94;89.43;100071.11;123872;1099;104424;-78
2023/04/15 07:42:39;;;;;;;29.00;14.97;;;;;;;11.91;89.83;100068.38;123924;1099;104341;-80
2023/04/15 07:45:11;;;;;;;28.53;16.13;;;;;;;11.92;89.66;100070.20;124204;1099;104245;-77
2023/04/15 07:47:43;;;;;;;29.10;15.77;;;;;;;11.94;89.65;100063.23;123460;1099;104386;-77
2023/04/15 07:50:16;;;;;;;25.80;14.85;;;;;;;11.98;89.94;100061.55;123877;1099;104312;-78
2023/04/15 07:52:48;;;;;;;25.20;14.33;;;;;;;12.05;89.62;100060.84;124169;1098;104434;-78
2023/04/15 07:55:22;;;;;;;27.87;15.43;;;;;;;12.10;89.62;100069.71;123961;1099;104720;-79
2023/04/15 07:57:53;;;;;;;25.35;14.70;;;;;;;12.13;89.65;100069.78;123584;1099;104271;-79
2023/04/15 08:00:25;;;;;;;24.73;12.93;;;;;;;12.19;89.87;100064.66;123562;1101;104348;-82
2023/04/15 08:02:58;;;;;;;26.33;15.10;;;;;;;12.25;89.62;100058.66;123511;1099;104637;-77
2023/04/15 08:05:29;;;;;;;26.07;15.60;;;;;;;12.33;89.48;100067.59;123504;1099;104338;-77
2023/04/15 08:08:01;;;;;;;28.37;15.40;;;;;;;12.42;89.31;100072.18;123608;1099;104313;-78
2023/04/15 08:10:33;;;;;;;29.10;16.03;;;;;;;12.43;89.49;100059.90;123680;1099;104357;-80
2023/04/15 08:13:04;;;;;;;27.10;15.47;;;;;;;12.46;89.33;100068.73;123964;1099;104194;-78
2023/04/15 08:15:36;;;;;;;31.13;15.30;;;;;;;12.50;89.54;100077.61;123896;1099;104358;-79
2023/04/15 08:18:07;;;;;;;26.67;15.43;;;;;;;12.55;89.25;100079.45;123899;1099;104268;-78
2023/04/15 08:20:38;;;;;;;27.70;16.17;;;;;;;12.60;89.41;100071.66;124058;1098;104268;-79
2023/04/15 08:23:09;;;;;;;26.13;15.97;;;;;;;12.63;89.04;100076.11;123913;1099;104223;-79
2023/04/15 08:25:41;;;;;;;28.27;15.07;;;;;;;12.65;89.17;100074.39;124038;1098;104361;-78
2023/04/15 08:28:12;;;;;;;35.77;15.60;;;;;;;12.72;89.36;100071.03;123616;1099;104460;-79
2023/04/15 08:30:43;;;;;;;28.50;15.10;;;;;;;12.82;89.08;100078.23;123815;1099;104347;-78
2023/04/15 08:33:14;;;;;;;28.20;15.07;;;;;;;12.89;88.90;100074.87;124055;1099;104240;-79
2023/04/15 08:35:46;;;;;;;22.60;13.53;;;;;;;13.01;88.79;100068.97;123853;1099;104670;-80
2023/04/15 08:38:17;;;;;;;27.13;15.17;;;;;;;13.09;88.56;100069.12;123857;1099;104294;-79
2023/04/15 08:40:49;;;;;;;26.80;15.07;;;;;;;13.19;89.55;100072.80;123481;1099;104386;-79
2023/04/15 08:43:25;;;;;;;27.57;15.07;;;;;;;13.27;88.88;100066.78;123552;1099;104350;-77
2023/04/15 08:46:00;;;;;;;26.50;15.67;;;;;;;13.36;89.21;100074.02;123437;1103;105318;-77
2023/04/15 08:48:34;;;;;;;23.77;14.50;;;;;;;13.41;89.12;100074.09;123435;1099;104245;-78
2023/04/15 08:51:07;;;;;;;28.70;15.50;;;;;;;13.44;88.66;100069.75;123861;1099;104373;-79
2023/04/15 08:53:39;;;;;;;27.23;14.97;;;;;;;13.48;88.71;100065.44;123812;1099;104412;-78
2023/04/15 08:56:12;;;;;;;25.90;14.83;;;;;;;13.54;88.55;100055.00;123875;1099;104252;-78
2023/04/15 08:58:44;;;;;;;25.97;14.60;;;;;;;13.59;88.55;100055.95;124096;1099;104242;-77
2023/04/15 09:01:15;;;;;;;25.67;15.07;;;;;;;13.60;88.32;100057.74;123641;1098;104389;-76
2023/04/15 09:03:48;;;;;;;25.80;14.45;;;;;;;13.57;87.80;100057.69;124208;1099;104411;-78
2023/04/15 09:06:20;;;;;;;25.50;15.33;;;;;;;13.56;87.97;100053.27;124166;1099;104371;-78
2023/04/15 09:08:52;;;;;;;26.97;15.37;;;;;;;13.57;88.71;100046.23;123749;1100;104382;-79
2023/04/15 09:11:24;;;;;;;27.50;16.80;;;;;;;13.58;87.84;100050.66;123824;1099;104667;-78
2023/04/15 09:13:56;;;;;;;31.00;17.00;;;;;;;13.57;88.54;100047.15;123914;1098;104427;-78
2023/04/15 09:16:27;;;;;;;30.00;18.90;;;;;;;13.61;88.56;100048.07;123769;1099;104278;-81
2023/04/15 09:18:59;;;;;;;31.53;16.73;;;;;;;13.58;88.44;100046.27;123951;1099;104412;-79
2023/04/15 09:21:32;;;;;;;32.00;18.20;;;;;;;13.55;88.72;100055.88;123946;1099;104261;-79
2023/04/15 09:24:04;;;;;;;28.10;17.48;;;;;;;13.57;88.48;100054.15;123671;1099;104328;-77
2023/04/15 09:26:38;;;;;;;29.10;15.87;;;;;;;13.56;88.91;100058.55;123829;1099;104242;-79
2023/04/15 09:29:12;;;;;;;26.30;16.63;;;;;;;13.53;88.97;100053.22;123563;1099;104265;-79
2023/04/15 09:31:44;;;;;;;27.77;16.55;;;;;;;13.50;89.19;100058.44;123425;1099;104288;-78
2023/04/15 09:34:15;;;;;;;28.60;14.67;;;;;;;13.47;89.27;100068.93;123878;1099;104338;-78
2023/04/15 09:36:56;;;;;;;30.13;16.23;;;;;;;13.46;88.83;100085.59;123571;1099;104197;-77
2023/04/15 09:39:27;;;;;;;28.60;16.43;;;;;;;13.46;89.03;100104.05;123873;1099;104344;-79
2023/04/15 09:42:08;;;;;;;31.80;16.20;;;;;;;13.43;88.54;100102.27;123667;1098;104282;-77
2023/04/15 09:44:40;;;;;;;28.17;17.53;;;;;;;13.44;89.69;100108.41;123963;1099;104242;-79
2023/04/15 09:47:26;;;;;;;33.85;17.20;;;;;;;13.41;89.85;100103.08;124258;1099;104267;-81
2023/04/15 09:50:01;;;;;;;32.80;18.10;;;;;;;13.35;89.62;100089.80;123936;1099;104274;-78
2023/04/15 09:52:33;;;;;;;31.70;17.20;;;;;;;13.30;91.05;100092.31;123579;1099;104226;-78
2023/04/15 09:55:06;;;;;;;31.50;18.95;;;;;;;13.26;90.49;100098.37;123977;1099;104335;-79
2023/04/15 09:57:40;;;;;;;34.38;19.73;;;;;;;13.23;91.32;100093.96;124096;1099;104432;-77
2023/04/15 10:00:13;;;;;;;30.12;18.90;;;;;;;13.19;92.00;100096.52;124456;1099;104238;-78
2023/04/15 10:02:45;;;;;;;32.80;19.17;;;;;;;13.17;92.02;100091.21;124112;1099;104674;-79
2023/04/15 10:05:17;;;;;;;32.97;19.03;;;;;;;13.14;92.38;100096.42;124003;1099;104243;-77
2023/04/15 10:07:48;;;;;;;30.97;18.73;;;;;;;13.10;92.19;100084.95;123588;1096;104245;-77
2023/04/15 10:10:20;;;;;;;32.00;19.07;;;;;;;13.09;92.48;100090.19;123964;1099;104736;-81
2023/04/15 10:12:53;;;;;;;31.07;19.00;;;;;;;13.08;92.58;100080.50;124052;1099;104326;-79
2023/04/15 10:15:25;;;;;;;38.10;21.60;;;;;;;13.08;92.35;100085.77;123885;1099;104345;-77
2023/04/15 10:17:58;;;;;;;35.23;20.07;;;;;;;13.07;92.67;100091.88;124154;1099;104236;-80
2023/04/15 10:20:31;;;;;;;37.57;21.50;;;;;;;13.05;92.77;100101.52;124128;1099;104816;-77
2023/04/15 10:23:03;;;;;;;31.43;20.67;;;;;;;13.03;93.66;100103.24;123785;1099;104533;-78
2023/04/15 10:25:35;;;;;;;31.83;19.80;;;;;;;13.02;93.16;100106.72;123673;1099;104236;-80
2023/04/15 10:28:08;;;;;;;34.17;21.10;;;;;;;13.01;93.27;100112.84;123951;1099;104373;-78
2023/04/15 10:30:40;;;;;;;36.37;21.10;;;;;;;13.02;93.25;100114.63;124080;1099;104252;-81
2023/04/15 10:33:12;;;;;;;34.45;21.25;;;;;;;13.04;93.09;100118.16;124239;1099;104358;-79
2023/04/15 10:35:44;;;;;;;35.17;21.23;;;;;;;13.05;93.70;100122.59;124072;1099;104342;-83
2023/04/15 10:38:33;;;;;;;33.23;21.50;;;;;;;13.06;93.90;100119.98;124250;1099;104242;-80
2023/04/15 10:41:17;;;;;;;38.50;23.20;;;;;;;13.08;93.76;100127.91;124048;1099;104236;-80
2023/04/15 10:43:54;;;;;;;36.90;21.75;;;;;;;13.10;94.15;100121.83;124384;1099;104267;-80
2023/04/15 10:46:39;;;;;;;39.57;24.03;;;;;;;13.14;93.70;100125.41;124113;1099;104249;-79
2023/04/15 10:49:12;;;;;;;35.67;21.50;;;;;;;13.18;94.41;100114.04;124111;1099;104364;-77
2023/04/15 10:51:45;;;;;;;40.03;23.60;;;;;;;13.18;94.78;100137.75;124173;1099;104268;-79
2023/04/15 10:54:31;;;;;;;36.23;21.87;;;;;;;13.17;94.69;100125.45;124171;1099;104270;-79
2023/04/15 10:57:15;;;;;;;40.07;23.67;;;;;;;13.20;94.77;100133.42;124344;1099;104318;-79
2023/04/15 11:00:10;;;;;;;39.78;25.30;;;;;;;13.25;94.27;100136.14;123884;1099;104319;-79
2023/04/15 11:02:43;;;;;;;39.40;24.40;;;;;;;13.33;94.94;100121.39;123898;1098;104341;-80
2023/04/15 11:05:16;;;;;;;36.30;24.45;;;;;;;13.40;95.50;100114.48;124133;1099;104153;-80
2023/04/15 11:07:53;;;;;;;40.10;24.87;;;;;;;13.42;95.12;100129.47;124227;1098;104239;-78
2023/04/15 11:10:54;;;;;;;41.77;24.70;;;;;;;13.44;94.54;100127.73;124217;1099;104290;-78
2023/04/15 11:13:35;;;;;;;40.00;24.43;;;;;;;13.46;94.85;100133.95;124197;1098;104331;-78
2023/04/15 11:16:06;;;;;;;35.23;22.63;;;;;;;13.46;95.35;100127.77;123992;1099;104686;-77
2023/04/15 11:18:37;;;;;;;39.03;23.03;;;;;;;13.48;95.53;100139.25;124070;1099;104277;-78
2023/04/15 11:21:10;;;;;;;34.03;21.87;;;;;;;13.48;95.75;100142.76;123885;1102;104354;-78
2023/04/15 11:23:45;;;;;;;38.73;23.57;;;;;;;13.46;94.82;100146.21;123963;1099;104361;-78